createdAt,value
2023-03-27T00:01:13.109Z,101019.75
2023-03-27T00:03:40.616Z,101025.72
2023-03-27T00:06:11.625Z,101027.19
2023-03-27T00:08:39.067Z,101032.66
2023-03-27T00:11:08.297Z,101027.19
2023-03-27T00:13:42.512Z,101034.19
2023-03-27T00:16:18.537Z,101033.38
2023-03-27T00:18:46.131Z,101033.94
2023-03-27T00:21:13.500Z,101044.19
2023-03-27T00:23:40.742Z,101039.66
2023-03-27T00:26:07.953Z,101038.97
2023-03-27T00:28:35.713Z,101047.44
2023-03-27T00:31:03.015Z,101048.38
2023-03-27T00:33:30.040Z,101046.66
2023-03-27T00:35:57.113Z,101046.78
2023-03-27T00:38:24.603Z,101045.63
2023-03-27T00:40:54.939Z,101049.91
2023-03-27T00:43:24.845Z,101047.81
2023-03-27T00:45:55.490Z,101050.28
2023-03-27T00:48:24.998Z,101051.13
2023-03-27T00:50:53.345Z,101048.63
2023-03-27T00:53:28.123Z,101049.25
2023-03-27T00:56:04.274Z,101053.91
2023-03-27T00:58:37.343Z,101057.22
2023-03-27T01:01:05.809Z,101057.22
2023-03-27T01:03:34.890Z,101058.78
2023-03-27T01:06:03.266Z,101056.72
2023-03-27T01:08:33.912Z,101053.31
2023-03-27T01:11:38.211Z,101051.41
2023-03-27T01:14:26.882Z,101058.09
2023-03-27T01:17:08.866Z,101050.84
2023-03-27T01:19:59.547Z,101055.72
2023-03-27T01:22:44.703Z,101058.91
2023-03-27T01:25:44.778Z,101073.06
2023-03-27T01:28:26.834Z,101076.13
2023-03-27T01:31:16.243Z,101073.16
2023-03-27T01:34:04.148Z,101072.34
2023-03-27T01:37:02.954Z,101066.19
2023-03-27T01:39:32.609Z,101072.13
2023-03-27T01:42:18.611Z,101071.50
2023-03-27T01:45:10.720Z,101070.78
2023-03-27T01:47:45.012Z,101083.25
2023-03-27T01:50:19.597Z,101083.75
2023-03-27T01:52:54.674Z,101073.19
2023-03-27T01:55:26.489Z,101089.34
2023-03-27T01:58:03.333Z,101090.28
2023-03-27T02:00:51.996Z,101083.16
2023-03-27T02:03:27.128Z,101092.66
2023-03-27T02:06:00.579Z,101089.44
2023-03-27T02:08:33.548Z,101097.06
2023-03-27T02:11:01.144Z,101099.28
2023-03-27T02:13:45.658Z,101104.75
2023-03-27T02:16:18.604Z,101113.69
2023-03-27T02:18:54.478Z,101112.84
2023-03-27T02:21:23.798Z,101117.84
2023-03-27T02:23:51.073Z,101118.91
2023-03-27T02:26:18.273Z,101113.59
2023-03-27T02:28:52.108Z,101110.34
2023-03-27T02:31:40.418Z,101118.16
2023-03-27T02:34:57.318Z,101117.31
2023-03-27T02:37:51.072Z,101124.03
2023-03-27T02:40:40.467Z,101131.50
2023-03-27T02:43:28.310Z,101120.44
2023-03-27T02:45:55.333Z,101126.53
2023-03-27T02:48:37.027Z,101135.09
2023-03-27T02:51:30.840Z,101136.38
2023-03-27T02:54:03.573Z,101130.09
2023-03-27T02:56:34.043Z,101131.28
2023-03-27T02:59:04.302Z,101134.34
2023-03-27T03:01:33.300Z,101139.72
2023-03-27T03:04:07.674Z,101133.06
2023-03-27T03:06:35.003Z,101138.66
2023-03-27T03:09:06.200Z,101143.63
2023-03-27T03:11:39.616Z,101154.56
2023-03-27T03:14:06.443Z,101156.09
2023-03-27T03:16:33.619Z,101153.47
2023-03-27T03:19:00.408Z,101159.56
2023-03-27T03:21:27.260Z,101166.91
2023-03-27T03:23:57.837Z,101168.22
2023-03-27T03:26:27.348Z,101177.84
2023-03-27T03:29:00.572Z,101169.78
2023-03-27T03:31:28.375Z,101181.91
2023-03-27T03:33:55.343Z,101181.06
2023-03-27T03:36:22.149Z,101186.16
2023-03-27T03:38:49.123Z,101187.47
2023-03-27T03:41:16.507Z,101188.88
2023-03-27T03:43:43.586Z,101182.38
2023-03-27T03:46:10.672Z,101196.50
2023-03-27T03:48:37.910Z,101188.66
2023-03-27T03:51:05.144Z,101187.97
2023-03-27T03:53:31.967Z,101189.63
2023-03-27T03:55:58.955Z,101189.66
2023-03-27T03:58:34.110Z,101187.97
2023-03-27T04:01:03.142Z,101189.16
2023-03-27T04:03:32.872Z,101203.31
2023-03-27T04:06:07.708Z,101206.03
2023-03-27T04:08:35.581Z,101209.25
2023-03-27T04:11:02.431Z,101220.75
2023-03-27T04:13:29.270Z,101203.88
2023-03-27T04:15:56.479Z,101215.19
2023-03-27T04:18:32.796Z,101218.75
2023-03-27T04:21:00.351Z,101225.41
2023-03-27T04:23:30.480Z,101234.69
2023-03-27T04:26:02.251Z,101230.75
2023-03-27T04:28:30.616Z,101245.41
2023-03-27T04:30:58.628Z,101239.81
2023-03-27T04:33:25.961Z,101218.78
2023-03-27T04:36:06.068Z,101233.13
2023-03-27T04:38:39.483Z,101235.16
2023-03-27T04:41:07.049Z,101234.94
2023-03-27T04:43:37.026Z,101236.38
2023-03-27T04:46:06.716Z,101236.59
2023-03-27T04:48:33.682Z,101240.75
2023-03-27T04:51:00.455Z,101250.75
2023-03-27T04:53:30.442Z,101251.13
2023-03-27T04:55:58.448Z,101253.00
2023-03-27T04:58:29.623Z,101266.69
2023-03-27T05:00:57.914Z,101179.44
2023-03-27T05:03:26.353Z,101259.78
2023-03-27T05:05:53.957Z,101259.56
2023-03-27T05:08:21.008Z,101262.88
2023-03-27T05:10:48.178Z,101272.50
2023-03-27T05:13:15.038Z,101264.69
2023-03-27T05:15:42.001Z,101277.97
2023-03-27T05:18:09.330Z,101278.69
2023-03-27T05:20:37.225Z,101266.09
2023-03-27T05:23:04.610Z,101261.06
2023-03-27T05:25:32.974Z,101274.91
2023-03-27T05:28:00.965Z,101269.16
2023-03-27T05:30:28.779Z,101274.19
2023-03-27T05:32:59.546Z,101268.59
2023-03-27T05:35:28.784Z,101281.16
2023-03-27T05:37:59.106Z,101293.44
2023-03-27T05:40:27.636Z,101288.31
2023-03-27T05:42:56.711Z,101293.22
2023-03-27T05:45:24.533Z,101287.91
2023-03-27T05:47:56.999Z,101294.63
2023-03-27T05:50:28.813Z,101282.41
2023-03-27T05:53:04.538Z,101301.22
2023-03-27T05:55:32.500Z,101289.81
2023-03-27T05:57:59.919Z,101282.53
2023-03-27T06:00:27.614Z,101288.63
2023-03-27T06:02:57.420Z,101295.72
2023-03-27T06:05:30.069Z,101293.63
2023-03-27T06:07:59.323Z,101288.09
2023-03-27T06:10:28.564Z,101300.00
2023-03-27T06:13:00.924Z,101300.78
2023-03-27T06:15:27.975Z,101297.84
2023-03-27T06:17:54.956Z,101299.75
2023-03-27T06:20:23.035Z,101302.00
2023-03-27T06:22:52.982Z,101265.31
2023-03-27T06:25:20.578Z,101297.25
2023-03-27T06:27:49.745Z,101289.66
2023-03-27T06:30:22.314Z,101279.94
2023-03-27T06:32:51.728Z,101285.41
2023-03-27T06:35:20.192Z,101267.38
2023-03-27T06:37:51.450Z,101306.63
2023-03-27T06:40:24.470Z,101312.06
2023-03-27T06:43:06.397Z,101326.56
2023-03-27T06:45:36.374Z,101334.28
2023-03-27T06:48:17.781Z,101335.22
2023-03-27T06:50:49.665Z,101349.66
2023-03-27T06:55:49.342Z,101352.16
2023-03-27T06:58:19.169Z,101355.78
2023-03-27T07:00:49.124Z,101362.66
2023-03-27T07:03:16.434Z,101364.50
2023-03-27T07:05:43.511Z,101356.44
2023-03-27T07:08:23.216Z,101369.38
2023-03-27T07:11:03.835Z,101353.88
2023-03-27T07:13:35.077Z,101354.56
2023-03-27T07:16:01.930Z,101350.41
2023-03-27T07:18:28.942Z,101358.63
2023-03-27T07:20:55.951Z,101358.00
2023-03-27T07:23:25.964Z,101361.69
2023-03-27T07:25:58.063Z,101363.53
2023-03-27T07:28:25.140Z,101362.03
2023-03-27T07:30:52.374Z,101378.53
2023-03-27T07:33:19.437Z,101367.38
2023-03-27T07:35:51.434Z,101370.78
2023-03-27T07:38:18.544Z,101368.28
2023-03-27T07:40:46.678Z,101365.25
2023-03-27T07:43:14.385Z,101369.97
2023-03-27T07:45:42.295Z,101373.81
2023-03-27T07:48:17.706Z,101375.50
2023-03-27T07:50:45.390Z,101362.13
2023-03-27T07:53:32.917Z,101360.53
2023-03-27T07:55:59.448Z,101379.19
2023-03-27T07:58:26.986Z,101385.25
2023-03-27T08:00:54.533Z,101386.75
2023-03-27T08:03:26.164Z,101398.31
2023-03-27T08:05:55.459Z,101397.63
2023-03-27T08:08:23.390Z,101399.44
2023-03-27T08:10:51.144Z,101407.06
2023-03-27T08:13:18.635Z,101413.59
2023-03-27T08:15:45.669Z,101406.28
2023-03-27T08:18:12.560Z,101402.50
2023-03-27T08:20:39.662Z,101399.22
2023-03-27T08:23:06.821Z,101400.16
2023-03-27T08:25:34.792Z,101409.22
2023-03-27T08:28:03.055Z,101407.25
2023-03-27T08:30:30.904Z,101420.03
2023-03-27T08:33:00.353Z,101421.19
2023-03-27T08:35:27.318Z,101423.34
2023-03-27T08:37:57.705Z,101436.66
2023-03-27T08:40:28.644Z,101455.22
2023-03-27T08:43:03.868Z,101463.66
2023-03-27T08:45:43.403Z,101449.84
2023-03-27T08:48:21.191Z,101460.66
2023-03-27T08:50:57.311Z,101460.28
2023-03-27T08:53:39.204Z,101455.25
2023-03-27T08:56:07.192Z,101450.56
2023-03-27T08:58:34.732Z,101436.97
2023-03-27T09:01:09.840Z,101434.00
2023-03-27T09:03:44.626Z,101432.56
2023-03-27T09:06:38.437Z,101450.75
2023-03-27T09:09:15.239Z,101451.69
2023-03-27T09:12:06.440Z,101462.81
2023-03-27T09:14:40.646Z,101460.31
2023-03-27T09:17:17.357Z,101468.06
2023-03-27T09:19:58.812Z,101451.44
2023-03-27T09:22:30.413Z,101443.63
2023-03-27T09:25:03.761Z,101438.28
2023-03-27T09:27:34.634Z,101445.31
2023-03-27T09:30:18.957Z,101441.50
2023-03-27T09:32:49.006Z,101429.63
2023-03-27T09:35:20.505Z,101432.31
2023-03-27T09:37:50.823Z,101428.38
2023-03-27T09:40:41.304Z,101426.09
2023-03-27T09:43:15.175Z,101434.94
2023-03-27T09:45:44.380Z,101425.22
2023-03-27T09:48:34.306Z,101422.56
2023-03-27T09:51:02.562Z,101433.19
2023-03-27T09:53:30.382Z,101436.34
2023-03-27T09:56:05.678Z,101429.75
2023-03-27T09:58:49.351Z,101427.56
2023-03-27T10:01:20.122Z,101417.75
2023-03-27T10:03:55.673Z,101415.22
2023-03-27T10:06:31.815Z,101420.34
2023-03-27T10:09:07.548Z,101445.06
2023-03-27T10:11:36.141Z,101458.78
2023-03-27T10:14:14.864Z,101442.97
2023-03-27T10:16:42.745Z,101469.97
2023-03-27T10:19:27.933Z,101496.97
2023-03-27T10:21:59.132Z,101508.31
2023-03-27T10:24:35.025Z,101526.44
2023-03-27T10:27:08.566Z,101534.16
2023-03-27T10:29:39.667Z,101540.84
2023-03-27T10:32:08.279Z,101547.75
2023-03-27T10:34:52.837Z,101543.25
2023-03-27T10:37:27.562Z,101537.59
2023-03-27T10:39:57.071Z,101529.75
2023-03-27T10:42:27.478Z,101536.84
2023-03-27T10:44:57.747Z,101536.59
2023-03-27T10:47:32.126Z,101502.44
2023-03-27T10:50:31.068Z,101488.97
2023-03-27T10:53:12.500Z,101489.53
2023-03-27T10:55:52.108Z,101488.84
2023-03-27T10:58:28.218Z,101496.72
2023-03-27T11:01:23.405Z,101477.81
2023-03-27T11:03:57.257Z,101493.72
2023-03-27T11:06:31.586Z,101503.72
2023-03-27T11:09:17.500Z,101528.69
2023-03-27T11:12:08.447Z,101530.63
2023-03-27T11:14:42.972Z,101546.84
2023-03-27T11:17:14.935Z,101585.84
2023-03-27T11:20:07.599Z,101606.09
2023-03-27T11:22:46.358Z,101622.19
2023-03-27T11:25:25.324Z,101619.66
2023-03-27T11:28:01.561Z,101617.06
2023-03-27T11:30:52.474Z,101615.66
2023-03-27T11:33:54.541Z,101578.69
2023-03-27T11:36:37.814Z,101567.06
2023-03-27T11:39:21.134Z,101565.06
2023-03-27T11:41:52.695Z,101564.47
2023-03-27T11:44:20.455Z,101565.69
2023-03-27T11:47:11.675Z,101555.19
2023-03-27T11:50:06.336Z,101531.47
2023-03-27T11:52:42.371Z,101514.72
2023-03-27T11:55:23.140Z,101509.09
2023-03-27T11:58:08.825Z,101512.47
2023-03-27T12:00:52.931Z,101512.84
2023-03-27T12:03:46.086Z,101517.88
2023-03-27T12:06:37.772Z,101513.66
2023-03-27T12:09:40.710Z,101508.97
2023-03-27T12:12:27.880Z,101503.13
2023-03-27T12:15:24.199Z,101475.06
2023-03-27T12:18:35.318Z,101509.81
2023-03-27T12:21:20.720Z,101497.91
2023-03-27T12:24:15.638Z,101503.91
2023-03-27T12:27:08.467Z,101507.47
2023-03-27T12:29:49.478Z,101514.97
2023-03-27T12:32:34.847Z,101506.44
2023-03-27T12:35:21.637Z,101512.06
2023-03-27T12:37:50.615Z,101497.63
2023-03-27T12:40:29.299Z,101515.72
2023-03-27T12:43:20.976Z,101511.69
2023-03-27T12:46:09.623Z,101514.28
2023-03-27T12:48:52.040Z,101511.69
2023-03-27T12:51:19.981Z,101532.38
2023-03-27T12:53:54.209Z,101553.44
2023-03-27T12:56:33.597Z,101579.25
2023-03-27T12:59:01.775Z,101577.75
2023-03-27T13:01:52.375Z,101578.19
2023-03-27T13:04:28.692Z,101604.03
2023-03-27T13:07:27.806Z,101586.75
2023-03-27T13:10:10.630Z,101567.66
2023-03-27T13:13:10.781Z,101578.41
2023-03-27T13:15:52.889Z,101575.28
2023-03-27T13:18:54.864Z,101574.59
2023-03-27T13:21:57.197Z,101562.03
2023-03-27T13:24:55.218Z,101554.03
2023-03-27T13:27:37.499Z,101563.56
2023-03-27T13:30:06.161Z,101557.09
2023-03-27T13:32:41.165Z,101547.47
2023-03-27T13:35:21.381Z,101566.19
2023-03-27T13:37:52.233Z,101552.88
2023-03-27T13:40:26.831Z,101563.63
2023-03-27T13:43:28.253Z,101566.50
2023-03-27T13:45:59.176Z,101555.56
2023-03-27T13:48:38.799Z,101565.34
2023-03-27T13:51:34.528Z,101563.75
2023-03-27T13:54:29.750Z,101561.97
2023-03-27T13:57:03.754Z,101553.75
2023-03-27T14:00:14.370Z,101577.81
2023-03-27T14:02:58.615Z,101585.69
2023-03-27T14:06:09.937Z,101584.06
2023-03-27T14:08:52.439Z,101587.00
2023-03-27T14:11:38.800Z,101592.94
2023-03-27T14:14:23.046Z,101590.53
2023-03-27T14:17:07.251Z,101582.50
2023-03-27T14:19:39.588Z,101591.66
2023-03-27T14:22:40.688Z,101595.84
2023-03-27T14:25:20.578Z,101598.44
2023-03-27T14:27:54.686Z,101604.59
2023-03-27T14:30:27.478Z,101595.09
2023-03-27T14:32:56.832Z,101603.56
2023-03-27T14:35:33.476Z,101605.97
2023-03-27T14:38:03.790Z,101594.97
2023-03-27T14:40:34.729Z,101594.03
2023-03-27T14:43:02.458Z,101591.41
2023-03-27T14:45:40.468Z,101581.47
2023-03-27T14:48:17.574Z,101588.59
2023-03-27T14:50:46.648Z,101586.25
2023-03-27T14:53:19.227Z,101597.31
2023-03-27T14:55:48.664Z,101609.00
2023-03-27T14:58:19.567Z,101591.34
2023-03-27T15:00:52.101Z,101601.69
2023-03-27T15:03:23.411Z,101606.03
2023-03-27T15:06:04.741Z,101616.28
2023-03-27T15:08:38.918Z,101619.06
2023-03-27T15:11:16.455Z,101637.81
2023-03-27T15:13:46.257Z,101610.13
2023-03-27T15:16:21.572Z,101634.81
2023-03-27T15:19:00.653Z,101632.00
2023-03-27T15:21:56.616Z,101594.50
2023-03-27T15:24:43.605Z,101619.88
2023-03-27T15:27:32.306Z,101628.94
2023-03-27T15:30:11.755Z,101650.06
2023-03-27T15:32:50.446Z,101636.25
2023-03-27T15:35:34.611Z,101651.81
2023-03-27T15:38:03.596Z,101651.41
2023-03-27T15:40:36.985Z,101661.97
2023-03-27T15:43:16.657Z,101666.19
2023-03-27T15:46:04.956Z,101664.78
2023-03-27T15:48:32.515Z,101657.56
2023-03-27T15:51:08.015Z,101645.09
2023-03-27T15:53:39.272Z,101655.56
2023-03-27T15:56:24.595Z,101654.13
2023-03-27T15:58:53.252Z,101653.66
2023-03-27T16:01:23.373Z,101656.47
2023-03-27T16:03:51.663Z,101640.16
2023-03-27T16:06:33.752Z,101607.75
2023-03-27T16:09:01.859Z,101641.25
2023-03-27T16:11:40.226Z,101650.97
2023-03-27T16:14:39.169Z,101654.03
2023-03-27T16:17:10.005Z,101652.06
2023-03-27T16:19:50.119Z,101637.09
2023-03-27T16:22:24.772Z,101653.13
2023-03-27T16:24:52.482Z,101646.75
2023-03-27T16:27:24.085Z,101648.94
2023-03-27T16:29:51.866Z,101642.00
2023-03-27T16:32:21.211Z,101626.25
2023-03-27T16:34:51.486Z,101648.72
2023-03-27T16:37:20.572Z,101654.03
2023-03-27T16:39:47.688Z,101666.13
2023-03-27T16:42:19.660Z,101661.97
2023-03-27T16:44:46.925Z,101667.16
2023-03-27T16:47:14.764Z,101663.97
2023-03-27T16:49:42.301Z,101676.25
2023-03-27T16:52:09.862Z,101680.97
2023-03-27T16:54:37.828Z,101677.16
2023-03-27T16:57:04.914Z,101676.00
2023-03-27T16:59:32.089Z,101674.47
2023-03-27T17:01:59.211Z,101675.16
2023-03-27T17:04:26.235Z,101675.72
2023-03-27T17:06:53.249Z,101702.84
2023-03-27T17:09:20.229Z,101720.63
2023-03-27T17:11:47.183Z,101719.88
2023-03-27T17:14:17.377Z,101707.53
2023-03-27T17:16:44.780Z,101705.22
2023-03-27T17:19:11.703Z,101714.69
2023-03-27T17:21:38.626Z,101722.38
2023-03-27T17:24:05.458Z,101718.91
2023-03-27T17:26:35.511Z,101719.47
2023-03-27T17:29:05.519Z,101730.81
2023-03-27T17:31:34.084Z,101720.81
2023-03-27T17:34:01.523Z,101727.06
2023-03-27T17:36:41.132Z,101727.16
2023-03-27T17:39:08.373Z,101718.53
2023-03-27T17:41:35.383Z,101721.16
2023-03-27T17:44:02.516Z,101708.13
2023-03-27T17:46:29.612Z,101721.94
2023-03-27T17:48:58.052Z,101757.31
2023-03-27T17:51:24.911Z,101763.25
2023-03-27T17:53:51.924Z,101747.56
2023-03-27T17:56:18.982Z,101749.19
2023-03-27T17:58:48.899Z,101748.97
2023-03-27T18:01:20.831Z,101737.97
2023-03-27T18:03:48.748Z,101747.59
2023-03-27T18:06:20.007Z,101757.31
2023-03-27T18:08:47.397Z,101752.41
2023-03-27T18:11:16.263Z,101685.81
2023-03-27T18:13:43.401Z,101755.66
2023-03-27T18:16:11.162Z,101772.09
2023-03-27T18:18:39.520Z,101775.38
2023-03-27T18:21:09.914Z,101774.00
2023-03-27T18:23:45.600Z,101777.69
2023-03-27T18:26:14.346Z,101767.97
2023-03-27T18:28:41.429Z,101780.19
2023-03-27T18:31:12.268Z,101780.91
2023-03-27T18:33:39.184Z,101778.66
2023-03-27T18:36:11.007Z,101777.00
2023-03-27T18:38:40.275Z,101770.06
2023-03-27T18:41:08.055Z,101779.25
2023-03-27T18:43:41.160Z,101777.00
2023-03-27T18:46:08.506Z,101779.94
2023-03-27T18:48:36.067Z,101785.78
2023-03-27T18:51:05.540Z,101788.88
2023-03-27T18:53:32.548Z,101782.88
2023-03-27T18:56:00.625Z,101786.19
2023-03-27T18:58:29.237Z,101785.09
2023-03-27T19:00:57.086Z,101771.63
2023-03-27T19:03:26.990Z,101775.78
2023-03-27T19:05:54.422Z,101769.59
2023-03-27T19:08:22.257Z,101783.78
2023-03-27T19:10:49.386Z,101776.41
2023-03-27T19:13:16.384Z,101788.13
2023-03-27T19:15:43.837Z,101793.25
2023-03-27T19:18:11.306Z,101789.78
2023-03-27T19:20:38.457Z,101789.63
2023-03-27T19:23:05.561Z,101782.66
2023-03-27T19:25:35.580Z,101782.31
2023-03-27T19:28:04.108Z,101773.56
2023-03-27T19:30:31.493Z,101781.69
2023-03-27T19:32:58.885Z,101778.38
2023-03-27T19:35:26.778Z,101777.09
2023-03-27T19:37:57.536Z,101764.41
2023-03-27T19:40:24.382Z,101780.72
2023-03-27T19:42:51.707Z,101775.53
2023-03-27T19:45:18.818Z,101781.84
2023-03-27T19:47:45.900Z,101785.72
2023-03-27T19:50:14.759Z,101784.72
2023-03-27T19:52:42.695Z,101779.84
2023-03-27T19:55:09.874Z,101791.91
2023-03-27T19:57:36.708Z,101791.00
2023-03-27T20:00:09.699Z,101792.31
2023-03-27T20:02:37.176Z,101796.28
2023-03-27T20:05:04.367Z,101796.53
2023-03-27T20:07:31.543Z,101799.72
2023-03-27T20:09:59.207Z,101789.38
2023-03-27T20:12:26.131Z,101796.38
2023-03-27T20:15:07.080Z,101798.75
2023-03-27T20:17:41.178Z,101811.66
2023-03-27T20:20:12.379Z,101802.09
2023-03-27T20:22:54.094Z,101810.09
2023-03-27T20:25:24.043Z,101815.16
2023-03-27T20:27:53.647Z,101811.66
2023-03-27T20:30:20.621Z,101817.91
2023-03-27T20:32:47.479Z,101812.88
2023-03-27T20:35:23.650Z,101817.72
2023-03-27T20:37:56.642Z,101824.88
2023-03-27T20:40:25.012Z,101825.22
2023-03-27T20:43:03.702Z,101818.38
2023-03-27T20:45:31.440Z,101823.66
2023-03-27T20:48:03.478Z,101821.19
2023-03-27T20:50:31.830Z,101826.94
2023-03-27T20:52:58.800Z,101812.38
2023-03-27T20:55:33.615Z,101817.28
2023-03-27T20:58:03.380Z,101814.88
2023-03-27T21:00:30.241Z,101822.91
2023-03-27T21:02:57.259Z,101820.84
2023-03-27T21:05:24.265Z,101814.97
2023-03-27T21:07:52.904Z,101824.38
2023-03-27T21:10:23.169Z,101826.69
2023-03-27T21:12:51.359Z,101818.31
2023-03-27T21:15:18.538Z,101822.00
2023-03-27T21:17:45.598Z,101820.22
2023-03-27T21:20:12.666Z,101817.94
2023-03-27T21:22:39.469Z,101822.84
2023-03-27T21:25:06.973Z,101827.50
2023-03-27T21:27:33.767Z,101829.06
2023-03-27T21:30:00.618Z,101827.00
2023-03-27T21:32:27.757Z,101832.13
2023-03-27T21:34:54.727Z,101840.38
2023-03-27T21:37:24.184Z,101838.38
2023-03-27T21:39:52.588Z,101839.34
2023-03-27T21:42:21.909Z,101839.72
2023-03-27T21:44:53.739Z,101835.03
2023-03-27T21:47:23.042Z,101843.75
2023-03-27T21:49:49.887Z,101839.72
2023-03-27T21:52:17.070Z,101850.47
2023-03-27T21:54:53.161Z,101837.69
2023-03-27T21:57:29.161Z,101858.63
2023-03-27T21:59:57.100Z,101852.38
2023-03-27T22:02:24.106Z,101874.47
2023-03-27T22:04:51.138Z,101867.03
2023-03-27T22:07:18.008Z,101875.19
2023-03-27T22:09:45.435Z,101886.25
2023-03-27T22:12:12.316Z,101897.13
2023-03-27T22:14:39.381Z,101896.63
2023-03-27T22:17:06.377Z,101911.59
2023-03-27T22:19:33.463Z,101905.34
2023-03-27T22:22:01.518Z,101910.66
2023-03-27T22:24:29.133Z,101900.81
2023-03-27T22:26:57.214Z,101904.75
2023-03-27T22:29:24.122Z,101924.78
2023-03-27T22:31:51.197Z,101922.66
2023-03-27T22:34:18.692Z,101903.28
2023-03-27T22:36:45.675Z,101927.03
2023-03-27T22:39:12.628Z,101927.38
2023-03-27T22:41:39.709Z,101922.38
2023-03-27T22:44:06.657Z,101932.59
2023-03-27T22:46:34.062Z,101928.69
2023-03-27T22:49:00.996Z,101929.19
2023-03-27T22:51:32.578Z,101938.84
2023-03-27T22:53:59.585Z,101938.59
2023-03-27T22:56:26.555Z,101938.25
2023-03-27T22:58:53.516Z,101940.13
2023-03-27T23:01:20.549Z,101942.84
2023-03-27T23:03:47.597Z,101938.09
2023-03-27T23:06:23.517Z,101947.75
2023-03-27T23:08:51.469Z,101955.19
2023-03-27T23:11:19.762Z,101964.44
2023-03-27T23:13:47.360Z,101967.34
2023-03-27T23:16:14.517Z,101971.22
2023-03-27T23:18:41.847Z,101970.78
2023-03-27T23:21:11.263Z,101980.81
2023-03-27T23:23:39.271Z,101980.09
2023-03-27T23:26:07.503Z,101984.72
2023-03-27T23:28:36.583Z,101985.19
2023-03-27T23:31:06.422Z,101990.34
2023-03-27T23:33:37.511Z,101990.03
2023-03-27T23:36:10.478Z,101989.59
2023-03-27T23:38:38.112Z,101993.56
2023-03-27T23:41:06.820Z,101992.34
2023-03-27T23:43:33.912Z,101989.59
2023-03-27T23:46:05.700Z,102003.06
2023-03-27T23:48:32.572Z,102016.03
2023-03-27T23:50:59.392Z,102011.97
2023-03-27T23:53:28.675Z,102016.66
2023-03-27T23:55:57.874Z,102020.41
2023-03-27T23:58:32.743Z,102028.69
